sensor_id;sensor_type;location;lat;lon;timestamp;temperature;humidity
51884;DHT22;37915;53.254;6.598;2022-07-21T00:01:48;21.40;99.90
51884;DHT22;37915;53.254;6.598;2022-07-21T00:04:14;21.40;99.90
51884;DHT22;37915;53.254;6.598;2022-07-21T00:06:41;21.30;99.90
51884;DHT22;37915;53.254;6.598;2022-07-21T00:09:07;21.40;99.90
51884;DHT22;37915;53.254;6.598;2022-07-21T00:11:33;21.40;99.90
51884;DHT22;37915;53.254;6.598;2022-07-21T00:13:58;21.40;99.90
51884;DHT22;37915;53.254;6.598;2022-07-21T00:16:24;21.40;99.90
51884;DHT22;37915;53.254;6.598;2022-07-21T00:18:49;21.40;99.90
51884;DHT22;37915;53.254;6.598;2022-07-21T00:21:15;21.40;99.90
51884;DHT22;37915;53.254;6.598;2022-07-21T00:23:40;21.50;99.90
51884;DHT22;37915;53.254;6.598;2022-07-21T00:26:06;21.50;99.90
51884;DHT22;37915;53.254;6.598;2022-07-21T00:28:32;21.50;99.90
51884;DHT22;37915;53.254;6.598;2022-07-21T00:30:57;21.50;99.90
51884;DHT22;37915;53.254;6.598;2022-07-21T00:33:23;21.50;99.90
51884;DHT22;37915;53.254;6.598;2022-07-21T00:35:48;21.50;99.90
51884;DHT22;37915;53.254;6.598;2022-07-21T00:38:14;21.60;99.90
51884;DHT22;37915;53.254;6.598;2022-07-21T00:40:39;21.50;99.90
51884;DHT22;37915;53.254;6.598;2022-07-21T00:43:05;21.50;99.90
51884;DHT22;37915;53.254;6.598;2022-07-21T00:45:31;21.50;99.90
51884;DHT22;37915;53.254;6.598;2022-07-21T00:47:56;21.60;99.90
51884;DHT22;37915;53.254;6.598;2022-07-21T00:50:22;21.50;99.90
51884;DHT22;37915;53.254;6.598;2022-07-21T00:52:48;21.50;99.90
51884;DHT22;37915;53.254;6.598;2022-07-21T00:55:14;21.50;99.90
51884;DHT22;37915;53.254;6.598;2022-07-21T00:57:40;21.70;99.90
51884;DHT22;37915;53.254;6.598;2022-07-21T01:00:11;21.50;99.90
51884;DHT22;37915;53.254;6.598;2022-07-21T01:02:38;21.50;99.90
51884;DHT22;37915;53.254;6.598;2022-07-21T01:05:05;21.40;99.90
51884;DHT22;37915;53.254;6.598;2022-07-21T01:07:31;21.40;99.90
51884;DHT22;37915;53.254;6.598;2022-07-21T01:09:56;21.30;99.90
51884;DHT22;37915;53.254;6.598;2022-07-21T01:12:22;21.20;99.90
51884;DHT22;37915;53.254;6.598;2022-07-21T01:14:48;21.00;99.90
51884;DHT22;37915;53.254;6.598;2022-07-21T01:17:13;20.90;99.90
51884;DHT22;37915;53.254;6.598;2022-07-21T01:19:39;20.80;99.90
51884;DHT22;37915;53.254;6.598;2022-07-21T01:22:04;20.70;99.90
51884;DHT22;37915;53.254;6.598;2022-07-21T01:24:30;20.60;99.90
51884;DHT22;37915;53.254;6.598;2022-07-21T01:26:56;20.50;99.90
51884;DHT22;37915;53.254;6.598;2022-07-21T01:29:22;20.50;99.90
51884;DHT22;37915;53.254;6.598;2022-07-21T01:31:48;20.50;99.90
51884;DHT22;37915;53.254;6.598;2022-07-21T01:34:13;20.40;99.90
51884;DHT22;37915;53.254;6.598;2022-07-21T01:36:39;20.40;99.90
51884;DHT22;37915;53.254;6.598;2022-07-21T01:39:05;20.30;99.90
51884;DHT22;37915;53.254;6.598;2022-07-21T01:41:49;20.30;99.90
51884;DHT22;37915;53.254;6.598;2022-07-21T01:44:15;20.20;99.90
51884;DHT22;37915;53.254;6.598;2022-07-21T01:46:45;20.10;99.90
51884;DHT22;37915;53.254;6.598;2022-07-21T01:49:11;20.10;99.90
51884;DHT22;37915;53.254;6.598;2022-07-21T01:51:37;20.10;99.90
51884;DHT22;37915;53.254;6.598;2022-07-21T01:54:03;20.10;99.90
51884;DHT22;37915;53.254;6.598;2022-07-21T01:56:29;20.00;99.90
51884;DHT22;37915;53.254;6.598;2022-07-21T01:58:55;20.00;99.90
51884;DHT22;37915;53.254;6.598;2022-07-21T02:01:22;19.90;99.90
51884;DHT22;37915;53.254;6.598;2022-07-21T02:03:48;20.00;99.90
51884;DHT22;37915;53.254;6.598;2022-07-21T02:06:13;19.90;99.90
51884;DHT22;37915;53.254;6.598;2022-07-21T02:08:39;19.90;99.90
51884;DHT22;37915;53.254;6.598;2022-07-21T02:11:05;19.90;99.90
51884;DHT22;37915;53.254;6.598;2022-07-21T02:13:31;19.90;99.90
51884;DHT22;37915;53.254;6.598;2022-07-21T02:15:57;19.80;99.90
51884;DHT22;37915;53.254;6.598;2022-07-21T02:18:23;19.80;99.90
51884;DHT22;37915;53.254;6.598;2022-07-21T02:20:48;19.80;99.90
51884;DHT22;37915;53.254;6.598;2022-07-21T02:23:19;19.80;99.90
51884;DHT22;37915;53.254;6.598;2022-07-21T02:25:44;19.80;99.90
51884;DHT22;37915;53.254;6.598;2022-07-21T02:28:10;19.80;99.90
51884;DHT22;37915;53.254;6.598;2022-07-21T02:30:35;19.80;99.90
51884;DHT22;37915;53.254;6.598;2022-07-21T02:33:01;19.80;99.90
51884;DHT22;37915;53.254;6.598;2022-07-21T02:35:27;19.70;99.90
51884;DHT22;37915;53.254;6.598;2022-07-21T02:37:52;19.70;99.90
51884;DHT22;37915;53.254;6.598;2022-07-21T02:40:18;19.70;99.90
51884;DHT22;37915;53.254;6.598;2022-07-21T02:42:43;19.60;99.90
51884;DHT22;37915;53.254;6.598;2022-07-21T02:45:09;19.70;99.90
51884;DHT22;37915;53.254;6.598;2022-07-21T02:47:48;19.60;99.90
51884;DHT22;37915;53.254;6.598;2022-07-21T02:50:14;19.50;99.90
51884;DHT22;37915;53.254;6.598;2022-07-21T02:52:40;19.50;99.90
51884;DHT22;37915;53.254;6.598;2022-07-21T02:55:05;19.50;99.90
51884;DHT22;37915;53.254;6.598;2022-07-21T02:57:31;19.50;99.90
51884;DHT22;37915;53.254;6.598;2022-07-21T02:59:57;19.50;99.90
51884;DHT22;37915;53.254;6.598;2022-07-21T03:02:22;19.50;99.90
51884;DHT22;37915;53.254;6.598;2022-07-21T03:04:48;19.50;99.90
51884;DHT22;37915;53.254;6.598;2022-07-21T03:07:13;19.50;99.90
51884;DHT22;37915;53.254;6.598;2022-07-21T03:09:39;19.40;99.90
51884;DHT22;37915;53.254;6.598;2022-07-21T03:12:04;19.40;99.90
51884;DHT22;37915;53.254;6.598;2022-07-21T03:14:30;19.50;99.90
51884;DHT22;37915;53.254;6.598;2022-07-21T03:16:56;19.40;99.90
51884;DHT22;37915;53.254;6.598;2022-07-21T03:19:22;19.40;99.90
51884;DHT22;37915;53.254;6.598;2022-07-21T03:21:48;19.40;99.90
51884;DHT22;37915;53.254;6.598;2022-07-21T03:24:13;19.40;99.90
51884;DHT22;37915;53.254;6.598;2022-07-21T03:26:39;19.40;99.90
51884;DHT22;37915;53.254;6.598;2022-07-21T03:29:05;19.40;99.90
51884;DHT22;37915;53.254;6.598;2022-07-21T03:31:30;19.50;99.90
51884;DHT22;37915;53.254;6.598;2022-07-21T03:33:56;19.50;99.90
51884;DHT22;37915;53.254;6.598;2022-07-21T03:36:21;19.60;99.90
51884;DHT22;37915;53.254;6.598;2022-07-21T03:38:48;19.50;99.90
51884;DHT22;37915;53.254;6.598;2022-07-21T03:41:14;19.50;99.90
51884;DHT22;37915;53.254;6.598;2022-07-21T03:43:40;19.50;99.90
51884;DHT22;37915;53.254;6.598;2022-07-21T03:46:06;19.50;99.90
51884;DHT22;37915;53.254;6.598;2022-07-21T03:48:31;19.50;99.90
51884;DHT22;37915;53.254;6.598;2022-07-21T03:50:57;19.50;99.90
51884;DHT22;37915;53.254;6.598;2022-07-21T03:53:22;19.60;99.90
51884;DHT22;37915;53.254;6.598;2022-07-21T03:55:48;19.50;99.90
51884;DHT22;37915;53.254;6.598;2022-07-21T03:58:13;19.60;99.90
51884;DHT22;37915;53.254;6.598;2022-07-21T04:00:40;19.60;99.90
51884;DHT22;37915;53.254;6.598;2022-07-21T04:03:06;19.60;99.90
51884;DHT22;37915;53.254;6.598;2022-07-21T04:05:32;19.60;99.90
51884;DHT22;37915;53.254;6.598;2022-07-21T04:07:58;19.60;99.90
51884;DHT22;37915;53.254;6.598;2022-07-21T04:10:25;19.60;99.90
51884;DHT22;37915;53.254;6.598;2022-07-21T04:12:52;19.60;99.90
51884;DHT22;37915;53.254;6.598;2022-07-21T04:15:17;19.60;99.90
51884;DHT22;37915;53.254;6.598;2022-07-21T04:17:43;19.60;99.90
51884;DHT22;37915;53.254;6.598;2022-07-21T04:20:10;19.60;99.90
51884;DHT22;37915;53.254;6.598;2022-07-21T04:22:36;19.60;99.90
51884;DHT22;37915;53.254;6.598;2022-07-21T04:25:02;19.60;99.90
51884;DHT22;37915;53.254;6.598;2022-07-21T04:27:29;19.70;99.90
51884;DHT22;37915;53.254;6.598;2022-07-21T04:29:55;19.70;99.90
51884;DHT22;37915;53.254;6.598;2022-07-21T04:32:20;19.70;99.90
51884;DHT22;37915;53.254;6.598;2022-07-21T04:34:46;19.70;99.90
51884;DHT22;37915;53.254;6.598;2022-07-21T04:37:11;19.70;99.90
51884;DHT22;37915;53.254;6.598;2022-07-21T04:39:37;19.60;99.90
51884;DHT22;37915;53.254;6.598;2022-07-21T04:42:03;19.60;99.90
51884;DHT22;37915;53.254;6.598;2022-07-21T04:44:28;19.60;99.90
51884;DHT22;37915;53.254;6.598;2022-07-21T04:46:54;19.60;99.90
51884;DHT22;37915;53.254;6.598;2022-07-21T04:49:19;19.60;99.90
51884;DHT22;37915;53.254;6.598;2022-07-21T04:51:45;19.60;99.90
51884;DHT22;37915;53.254;6.598;2022-07-21T04:54:10;19.60;99.90
51884;DHT22;37915;53.254;6.598;2022-07-21T04:56:40;19.60;99.90
51884;DHT22;37915;53.254;6.598;2022-07-21T04:59:05;19.60;99.90
51884;DHT22;37915;53.254;6.598;2022-07-21T05:01:31;19.60;99.90
51884;DHT22;37915;53.254;6.598;2022-07-21T05:03:56;19.60;99.90
51884;DHT22;37915;53.254;6.598;2022-07-21T05:06:22;19.60;99.90
51884;DHT22;37915;53.254;6.598;2022-07-21T05:08:48;19.70;99.90
51884;DHT22;37915;53.254;6.598;2022-07-21T05:11:13;19.60;99.90
51884;DHT22;37915;53.254;6.598;2022-07-21T05:13:39;19.60;99.90
51884;DHT22;37915;53.254;6.598;2022-07-21T05:16:05;19.70;99.90
51884;DHT22;37915;53.254;6.598;2022-07-21T05:18:30;20.40;99.90
51884;DHT22;37915;53.254;6.598;2022-07-21T05:20:56;19.80;99.90
51884;DHT22;37915;53.254;6.598;2022-07-21T05:23:22;19.80;99.90
51884;DHT22;37915;53.254;6.598;2022-07-21T05:25:47;19.80;99.90
51884;DHT22;37915;53.254;6.598;2022-07-21T05:28:13;19.80;99.90
51884;DHT22;37915;53.254;6.598;2022-07-21T05:30:38;19.80;99.90
51884;DHT22;37915;53.254;6.598;2022-07-21T05:33:04;19.80;99.90
51884;DHT22;37915;53.254;6.598;2022-07-21T05:35:29;19.70;99.90
51884;DHT22;37915;53.254;6.598;2022-07-21T05:37:56;19.70;99.90
51884;DHT22;37915;53.254;6.598;2022-07-21T05:40:21;19.80;99.90
51884;DHT22;37915;53.254;6.598;2022-07-21T05:42:47;19.70;99.90
51884;DHT22;37915;53.254;6.598;2022-07-21T05:45:12;19.70;99.90
51884;DHT22;37915;53.254;6.598;2022-07-21T05:47:38;19.70;99.90
51884;DHT22;37915;53.254;6.598;2022-07-21T05:50:04;19.60;99.90
51884;DHT22;37915;53.254;6.598;2022-07-21T05:52:30;19.60;99.90
51884;DHT22;37915;53.254;6.598;2022-07-21T05:54:55;19.60;99.90
51884;DHT22;37915;53.254;6.598;2022-07-21T05:57:21;19.60;99.90
51884;DHT22;37915;53.254;6.598;2022-07-21T05:59:46;19.60;99.90
51884;DHT22;37915;53.254;6.598;2022-07-21T06:02:12;19.60;99.90
51884;DHT22;37915;53.254;6.598;2022-07-21T06:04:38;19.60;99.90
51884;DHT22;37915;53.254;6.598;2022-07-21T06:07:03;19.60;99.90
51884;DHT22;37915;53.254;6.598;2022-07-21T06:09:29;19.60;99.90
51884;DHT22;37915;53.254;6.598;2022-07-21T06:11:54;19.60;99.90
51884;DHT22;37915;53.254;6.598;2022-07-21T06:14:20;19.60;99.90
51884;DHT22;37915;53.254;6.598;2022-07-21T06:16:46;19.60;99.90
51884;DHT22;37915;53.254;6.598;2022-07-21T06:19:11;20.40;99.90
51884;DHT22;37915;53.254;6.598;2022-07-21T06:21:37;19.60;99.90
51884;DHT22;37915;53.254;6.598;2022-07-21T06:24:02;19.60;99.90
51884;DHT22;37915;53.254;6.598;2022-07-21T06:26:28;19.60;99.90
51884;DHT22;37915;53.254;6.598;2022-07-21T06:28:53;19.70;99.90
51884;DHT22;37915;53.254;6.598;2022-07-21T06:31:19;19.70;99.90
51884;DHT22;37915;53.254;6.598;2022-07-21T06:33:45;19.70;99.90
51884;DHT22;37915;53.254;6.598;2022-07-21T06:36:10;19.70;99.90
51884;DHT22;37915;53.254;6.598;2022-07-21T06:38:36;19.70;99.90
51884;DHT22;37915;53.254;6.598;2022-07-21T06:41:01;19.70;99.90
51884;DHT22;37915;53.254;6.598;2022-07-21T06:43:27;19.80;99.90
51884;DHT22;37915;53.254;6.598;2022-07-21T06:45:53;19.80;99.90
51884;DHT22;37915;53.254;6.598;2022-07-21T06:48:18;19.80;99.90
51884;DHT22;37915;53.254;6.598;2022-07-21T06:50:44;19.70;99.90
51884;DHT22;37915;53.254;6.598;2022-07-21T06:53:10;19.70;99.90
51884;DHT22;37915;53.254;6.598;2022-07-21T06:55:36;19.70;99.90
51884;DHT22;37915;53.254;6.598;2022-07-21T06:58:08;19.60;99.90
51884;DHT22;37915;53.254;6.598;2022-07-21T07:00:34;19.60;99.90
51884;DHT22;37915;53.254;6.598;2022-07-21T07:03:00;19.70;99.90
51884;DHT22;37915;53.254;6.598;2022-07-21T07:05:26;19.70;99.90
51884;DHT22;37915;53.254;6.598;2022-07-21T07:07:53;19.70;99.90
51884;DHT22;37915;53.254;6.598;2022-07-21T07:10:19;19.80;99.90
51884;DHT22;37915;53.254;6.598;2022-07-21T07:12:44;19.80;99.90
51884;DHT22;37915;53.254;6.598;2022-07-21T07:15:10;19.80;99.90
51884;DHT22;37915;53.254;6.598;2022-07-21T07:17:36;19.80;99.90
51884;DHT22;37915;53.254;6.598;2022-07-21T07:20:01;19.90;99.90
51884;DHT22;37915;53.254;6.598;2022-07-21T07:22:28;19.90;99.90
51884;DHT22;37915;53.254;6.598;2022-07-21T07:24:54;20.00;99.90
51884;DHT22;37915;53.254;6.598;2022-07-21T07:27:19;20.00;99.90
51884;DHT22;37915;53.254;6.598;2022-07-21T07:29:45;20.00;99.90
51884;DHT22;37915;53.254;6.598;2022-07-21T07:32:11;20.00;99.90
51884;DHT22;37915;53.254;6.598;2022-07-21T07:34:36;20.00;99.90
51884;DHT22;37915;53.254;6.598;2022-07-21T07:37:02;20.00;99.90
51884;DHT22;37915;53.254;6.598;2022-07-21T07:39:27;19.90;99.90
51884;DHT22;37915;53.254;6.598;2022-07-21T07:41:53;19.90;99.90
51884;DHT22;37915;53.254;6.598;2022-07-21T07:44:20;19.90;99.90
51884;DHT22;37915;53.254;6.598;2022-07-21T07:46:46;19.70;99.90
51884;DHT22;37915;53.254;6.598;2022-07-21T07:49:11;19.70;99.90
51884;DHT22;37915;53.254;6.598;2022-07-21T07:51:37;19.60;99.90
51884;DHT22;37915;53.254;6.598;2022-07-21T07:54:03;19.60;99.90
51884;DHT22;37915;53.254;6.598;2022-07-21T07:56:29;19.60;99.90
51884;DHT22;37915;53.254;6.598;2022-07-21T07:58:55;19.60;99.90
51884;DHT22;37915;53.254;6.598;2022-07-21T08:01:20;19.60;99.90
51884;DHT22;37915;53.254;6.598;2022-07-21T08:03:46;19.60;99.90
51884;DHT22;37915;53.254;6.598;2022-07-21T08:06:12;19.60;99.90
51884;DHT22;37915;53.254;6.598;2022-07-21T08:08:38;19.60;99.90
51884;DHT22;37915;53.254;6.598;2022-07-21T08:11:03;19.60;99.90
51884;DHT22;37915;53.254;6.598;2022-07-21T08:13:29;19.60;99.90
51884;DHT22;37915;53.254;6.598;2022-07-21T08:15:56;19.60;99.90
51884;DHT22;37915;53.254;6.598;2022-07-21T08:18:22;19.60;99.90
51884;DHT22;37915;53.254;6.598;2022-07-21T08:20:47;19.70;99.90
51884;DHT22;37915;53.254;6.598;2022-07-21T08:23:13;19.70;99.90
51884;DHT22;37915;53.254;6.598;2022-07-21T08:25:39;19.70;99.90
51884;DHT22;37915;53.254;6.598;2022-07-21T08:28:05;19.70;99.90
51884;DHT22;37915;53.254;6.598;2022-07-21T08:30:30;19.70;99.90
51884;DHT22;37915;53.254;6.598;2022-07-21T08:32:57;19.70;99.90
51884;DHT22;37915;53.254;6.598;2022-07-21T08:35:22;19.80;99.90
51884;DHT22;37915;53.254;6.598;2022-07-21T08:37:55;19.80;99.90
51884;DHT22;37915;53.254;6.598;2022-07-21T08:40:22;19.90;99.90
51884;DHT22;37915;53.254;6.598;2022-07-21T08:42:48;20.00;99.90
51884;DHT22;37915;53.254;6.598;2022-07-21T08:45:13;20.00;99.90
51884;DHT22;37915;53.254;6.598;2022-07-21T08:47:39;20.00;99.90
51884;DHT22;37915;53.254;6.598;2022-07-21T08:50:05;20.20;99.90
51884;DHT22;37915;53.254;6.598;2022-07-21T08:52:32;20.20;99.90
51884;DHT22;37915;53.254;6.598;2022-07-21T08:54:58;20.20;99.90
51884;DHT22;37915;53.254;6.598;2022-07-21T08:57:24;20.20;99.90
51884;DHT22;37915;53.254;6.598;2022-07-21T08:59:49;20.30;99.90
51884;DHT22;37915;53.254;6.598;2022-07-21T09:02:31;20.40;99.90
51884;DHT22;37915;53.254;6.598;2022-07-21T09:04:57;20.40;99.90
51884;DHT22;37915;53.254;6.598;2022-07-21T09:07:23;20.40;99.90
51884;DHT22;37915;53.254;6.598;2022-07-21T09:09:55;20.40;99.90
51884;DHT22;37915;53.254;6.598;2022-07-21T09:12:21;20.50;99.90
51884;DHT22;37915;53.254;6.598;2022-07-21T09:14:47;20.50;99.90
51884;DHT22;37915;53.254;6.598;2022-07-21T09:17:13;21.30;99.90
51884;DHT22;37915;53.254;6.598;2022-07-21T09:19:43;20.70;99.90
51884;DHT22;37915;53.254;6.598;2022-07-21T09:22:12;20.00;99.90
51884;DHT22;37915;53.254;6.598;2022-07-21T09:24:38;20.70;99.90
51884;DHT22;37915;53.254;6.598;2022-07-21T09:29:37;20.70;99.90
51884;DHT22;37915;53.254;6.598;2022-07-21T09:34:38;20.70;99.90
51884;DHT22;37915;53.254;6.598;2022-07-21T09:37:05;20.60;99.90
51884;DHT22;37915;53.254;6.598;2022-07-21T09:42:27;20.70;99.90
51884;DHT22;37915;53.254;6.598;2022-07-21T09:44:54;20.80;99.90
51884;DHT22;37915;53.254;6.598;2022-07-21T09:47:20;21.00;99.90
51884;DHT22;37915;53.254;6.598;2022-07-21T09:49:46;21.10;99.90
51884;DHT22;37915;53.254;6.598;2022-07-21T09:52:32;21.20;99.90
51884;DHT22;37915;53.254;6.598;2022-07-21T09:55:02;21.50;99.90
51884;DHT22;37915;53.254;6.598;2022-07-21T09:57:28;21.80;99.90
51884;DHT22;37915;53.254;6.598;2022-07-21T09:59:54;22.10;99.90
51884;DHT22;37915;53.254;6.598;2022-07-21T10:02:24;22.30;99.90
51884;DHT22;37915;53.254;6.598;2022-07-21T10:04:53;22.40;99.90
51884;DHT22;37915;53.254;6.598;2022-07-21T10:07:19;22.40;99.90
51884;DHT22;37915;53.254;6.598;2022-07-21T10:09:46;22.40;99.90
51884;DHT22;37915;53.254;6.598;2022-07-21T10:12:12;22.40;99.90
51884;DHT22;37915;53.254;6.598;2022-07-21T10:14:39;22.50;99.90
51884;DHT22;37915;53.254;6.598;2022-07-21T10:17:05;22.80;99.90
51884;DHT22;37915;53.254;6.598;2022-07-21T10:19:36;22.50;99.90
51884;DHT22;37915;53.254;6.598;2022-07-21T10:22:20;22.60;99.90
51884;DHT22;37915;53.254;6.598;2022-07-21T10:24:47;22.90;99.90
51884;DHT22;37915;53.254;6.598;2022-07-21T10:27:13;23.00;99.90
51884;DHT22;37915;53.254;6.598;2022-07-21T10:32:14;22.90;99.90
51884;DHT22;37915;53.254;6.598;2022-07-21T10:34:40;22.90;99.90
51884;DHT22;37915;53.254;6.598;2022-07-21T10:37:05;23.00;99.90
51884;DHT22;37915;53.254;6.598;2022-07-21T10:39:31;23.00;99.90
51884;DHT22;37915;53.254;6.598;2022-07-21T10:41:58;23.00;99.90
51884;DHT22;37915;53.254;6.598;2022-07-21T10:46:58;22.80;99.90
51884;DHT22;37915;53.254;6.598;2022-07-21T10:49:40;22.80;99.90
51884;DHT22;37915;53.254;6.598;2022-07-21T10:52:35;22.80;99.90
51884;DHT22;37915;53.254;6.598;2022-07-21T11:00:37;23.00;99.90
51884;DHT22;37915;53.254;6.598;2022-07-21T11:03:04;22.90;99.90
51884;DHT22;37915;53.254;6.598;2022-07-21T11:05:37;22.80;99.90
51884;DHT22;37915;53.254;6.598;2022-07-21T11:08:23;22.90;99.90
51884;DHT22;37915;53.254;6.598;2022-07-21T11:10:55;22.90;99.90
51884;DHT22;37915;53.254;6.598;2022-07-21T11:13:32;22.80;99.90
51884;DHT22;37915;53.254;6.598;2022-07-21T11:16:17;22.80;99.90
51884;DHT22;37915;53.254;6.598;2022-07-21T11:18:42;22.70;99.90
51884;DHT22;37915;53.254;6.598;2022-07-21T11:21:12;22.60;99.90
51884;DHT22;37915;53.254;6.598;2022-07-21T11:23:48;22.70;99.90
51884;DHT22;37915;53.254;6.598;2022-07-21T11:26:15;22.70;99.90
51884;DHT22;37915;53.254;6.598;2022-07-21T11:28:41;22.90;99.90
51884;DHT22;37915;53.254;6.598;2022-07-21T11:33:32;23.60;99.90
51884;DHT22;37915;53.254;6.598;2022-07-21T11:35:58;23.70;99.90
51884;DHT22;37915;53.254;6.598;2022-07-21T11:38:24;23.60;99.90
51884;DHT22;37915;53.254;6.598;2022-07-21T11:40:49;23.50;99.90
51884;DHT22;37915;53.254;6.598;2022-07-21T11:43:15;23.40;99.90
51884;DHT22;37915;53.254;6.598;2022-07-21T11:45:50;23.30;99.90
51884;DHT22;37915;53.254;6.598;2022-07-21T11:48:29;23.30;99.90
51884;DHT22;37915;53.254;6.598;2022-07-21T11:51:01;23.30;99.90
51884;DHT22;37915;53.254;6.598;2022-07-21T11:53:28;23.30;99.90
51884;DHT22;37915;53.254;6.598;2022-07-21T11:55:54;23.30;99.90
51884;DHT22;37915;53.254;6.598;2022-07-21T11:58:19;23.30;99.90
51884;DHT22;37915;53.254;6.598;2022-07-21T12:00:45;23.20;99.90
51884;DHT22;37915;53.254;6.598;2022-07-21T12:03:14;23.20;99.90
51884;DHT22;37915;53.254;6.598;2022-07-21T12:05:40;23.20;99.90
51884;DHT22;37915;53.254;6.598;2022-07-21T12:08:05;23.40;99.90
51884;DHT22;37915;53.254;6.598;2022-07-21T12:10:32;23.60;99.90
51884;DHT22;37915;53.254;6.598;2022-07-21T12:12:58;24.00;99.90
51884;DHT22;37915;53.254;6.598;2022-07-21T12:15:25;24.40;99.90
51884;DHT22;37915;53.254;6.598;2022-07-21T12:18:00;24.50;99.90
51884;DHT22;37915;53.254;6.598;2022-07-21T12:20:31;24.40;99.90
51884;DHT22;37915;53.254;6.598;2022-07-21T12:22:57;24.40;99.90
51884;DHT22;37915;53.254;6.598;2022-07-21T12:25:33;24.40;99.90
51884;DHT22;37915;53.254;6.598;2022-07-21T12:27:59;24.50;99.90
51884;DHT22;37915;53.254;6.598;2022-07-21T12:30:31;24.60;99.90
51884;DHT22;37915;53.254;6.598;2022-07-21T12:33:04;24.50;99.90
51884;DHT22;37915;53.254;6.598;2022-07-21T12:35:30;24.40;99.90
51884;DHT22;37915;53.254;6.598;2022-07-21T12:38:00;24.60;99.90
51884;DHT22;37915;53.254;6.598;2022-07-21T12:40:26;24.80;99.90
51884;DHT22;37915;53.254;6.598;2022-07-21T12:43:02;24.80;99.90
51884;DHT22;37915;53.254;6.598;2022-07-21T12:45:28;24.80;99.90
51884;DHT22;37915;53.254;6.598;2022-07-21T12:48:07;24.60;99.90
51884;DHT22;37915;53.254;6.598;2022-07-21T12:50:32;24.40;99.90
51884;DHT22;37915;53.254;6.598;2022-07-21T12:52:58;24.30;99.90
51884;DHT22;37915;53.254;6.598;2022-07-21T12:55:24;24.20;99.90
51884;DHT22;37915;53.254;6.598;2022-07-21T12:57:49;24.20;99.90
51884;DHT22;37915;53.254;6.598;2022-07-21T13:00:15;24.10;99.90
51884;DHT22;37915;53.254;6.598;2022-07-21T13:05:12;23.80;99.90
51884;DHT22;37915;53.254;6.598;2022-07-21T13:07:38;23.80;99.90
51884;DHT22;37915;53.254;6.598;2022-07-21T13:10:04;23.80;99.90
51884;DHT22;37915;53.254;6.598;2022-07-21T13:12:29;23.80;99.90
51884;DHT22;37915;53.254;6.598;2022-07-21T13:14:56;23.90;99.90
51884;DHT22;37915;53.254;6.598;2022-07-21T13:17:21;24.00;99.90
51884;DHT22;37915;53.254;6.598;2022-07-21T13:19:47;24.10;99.90
51884;DHT22;37915;53.254;6.598;2022-07-21T13:22:12;24.10;99.90
51884;DHT22;37915;53.254;6.598;2022-07-21T13:24:38;24.20;99.90
51884;DHT22;37915;53.254;6.598;2022-07-21T13:27:03;24.40;99.90
51884;DHT22;37915;53.254;6.598;2022-07-21T13:29:29;24.60;99.90
51884;DHT22;37915;53.254;6.598;2022-07-21T13:31:54;24.70;99.90
51884;DHT22;37915;53.254;6.598;2022-07-21T13:34:20;24.80;99.90
51884;DHT22;37915;53.254;6.598;2022-07-21T13:36:47;25.10;99.90
51884;DHT22;37915;53.254;6.598;2022-07-21T13:39:13;25.10;99.90
51884;DHT22;37915;53.254;6.598;2022-07-21T13:41:39;25.10;99.90
51884;DHT22;37915;53.254;6.598;2022-07-21T13:44:05;25.20;99.90
51884;DHT22;37915;53.254;6.598;2022-07-21T13:46:31;25.10;99.90
51884;DHT22;37915;53.254;6.598;2022-07-21T13:48:56;25.00;99.90
51884;DHT22;37915;53.254;6.598;2022-07-21T13:51:22;24.70;99.90
51884;DHT22;37915;53.254;6.598;2022-07-21T13:53:49;24.80;99.90
51884;DHT22;37915;53.254;6.598;2022-07-21T13:56:14;24.80;99.90
51884;DHT22;37915;53.254;6.598;2022-07-21T13:58:40;25.00;99.90
51884;DHT22;37915;53.254;6.598;2022-07-21T14:01:07;25.30;99.90
51884;DHT22;37915;53.254;6.598;2022-07-21T14:03:33;25.60;99.90
51884;DHT22;37915;53.254;6.598;2022-07-21T14:06:00;25.60;99.90
51884;DHT22;37915;53.254;6.598;2022-07-21T14:08:26;25.60;99.90
51884;DHT22;37915;53.254;6.598;2022-07-21T14:10:51;25.30;99.90
51884;DHT22;37915;53.254;6.598;2022-07-21T14:13:17;25.10;99.90
51884;DHT22;37915;53.254;6.598;2022-07-21T14:15:43;25.00;99.90
51884;DHT22;37915;53.254;6.598;2022-07-21T14:18:08;24.90;99.90
51884;DHT22;37915;53.254;6.598;2022-07-21T14:20:34;24.80;99.90
51884;DHT22;37915;53.254;6.598;2022-07-21T14:22:59;24.90;99.90
51884;DHT22;37915;53.254;6.598;2022-07-21T14:25:25;24.90;99.90
51884;DHT22;37915;53.254;6.598;2022-07-21T14:27:52;24.90;99.90
51884;DHT22;37915;53.254;6.598;2022-07-21T14:30:19;24.90;99.90
51884;DHT22;37915;53.254;6.598;2022-07-21T14:32:45;24.80;99.90
51884;DHT22;37915;53.254;6.598;2022-07-21T14:35:10;24.60;99.90
51884;DHT22;37915;53.254;6.598;2022-07-21T14:37:36;24.50;99.90
51884;DHT22;37915;53.254;6.598;2022-07-21T14:40:05;24.50;99.90
51884;DHT22;37915;53.254;6.598;2022-07-21T14:42:33;24.40;99.90
51884;DHT22;37915;53.254;6.598;2022-07-21T14:44:59;24.10;99.90
51884;DHT22;37915;53.254;6.598;2022-07-21T14:47:25;24.10;99.90
51884;DHT22;37915;53.254;6.598;2022-07-21T14:49:50;24.00;99.90
51884;DHT22;37915;53.254;6.598;2022-07-21T14:52:16;23.90;99.90
51884;DHT22;37915;53.254;6.598;2022-07-21T14:54:41;23.80;99.90
51884;DHT22;37915;53.254;6.598;2022-07-21T14:57:07;23.70;99.90
51884;DHT22;37915;53.254;6.598;2022-07-21T14:59:32;23.50;99.90
51884;DHT22;37915;53.254;6.598;2022-07-21T15:01:58;23.40;99.90
51884;DHT22;37915;53.254;6.598;2022-07-21T15:04:24;22.20;99.90
51884;DHT22;37915;53.254;6.598;2022-07-21T15:06:50;22.90;99.90
51884;DHT22;37915;53.254;6.598;2022-07-21T15:09:15;23.00;99.90
51884;DHT22;37915;53.254;6.598;2022-07-21T15:11:41;22.80;99.90
51884;DHT22;37915;53.254;6.598;2022-07-21T15:14:07;22.70;99.90
51884;DHT22;37915;53.254;6.598;2022-07-21T15:16:33;22.70;99.90
51884;DHT22;37915;53.254;6.598;2022-07-21T15:18:58;22.50;99.90
51884;DHT22;37915;53.254;6.598;2022-07-21T15:21:24;22.40;99.90
51884;DHT22;37915;53.254;6.598;2022-07-21T15:23:49;22.50;99.90
51884;DHT22;37915;53.254;6.598;2022-07-21T15:26:15;22.50;99.90
51884;DHT22;37915;53.254;6.598;2022-07-21T15:28:41;22.50;99.90
51884;DHT22;37915;53.254;6.598;2022-07-21T15:31:07;22.50;99.90
51884;DHT22;37915;53.254;6.598;2022-07-21T15:33:32;22.50;99.90
51884;DHT22;37915;53.254;6.598;2022-07-21T15:35:58;22.50;99.90
51884;DHT22;37915;53.254;6.598;2022-07-21T15:38:24;22.50;99.90
51884;DHT22;37915;53.254;6.598;2022-07-21T15:40:49;22.70;99.90
51884;DHT22;37915;53.254;6.598;2022-07-21T15:43:16;22.70;99.90
51884;DHT22;37915;53.254;6.598;2022-07-21T15:45:41;22.70;99.90
51884;DHT22;37915;53.254;6.598;2022-07-21T15:48:07;22.70;99.90
51884;DHT22;37915;53.254;6.598;2022-07-21T15:50:33;22.40;99.90